sensor_id;sensor_type;location;lat;lon;timestamp;P1;durP1;ratioP1;P2;durP2;ratioP2
6513;SDS011;3290;47.716;9.070;2022-07-29T00:01:03;2.10;;;1.90;;
6513;SDS011;3290;47.716;9.070;2022-07-29T00:03:28;3.33;;;2.07;;
6513;SDS011;3290;47.716;9.070;2022-07-29T00:05:54;1.80;;;1.70;;
6513;SDS011;3290;47.716;9.070;2022-07-29T00:08:20;2.37;;;2.17;;
6513;SDS011;3290;47.716;9.070;2022-07-29T00:10:45;2.33;;;1.60;;
6513;SDS011;3290;47.716;9.070;2022-07-29T00:13:11;6.33;;;1.90;;
6513;SDS011;3290;47.716;9.070;2022-07-29T00:15:36;3.93;;;2.00;;
6513;SDS011;3290;47.716;9.070;2022-07-29T00:18:02;1.80;;;1.70;;
6513;SDS011;3290;47.716;9.070;2022-07-29T00:20:27;2.23;;;1.90;;
6513;SDS011;3290;47.716;9.070;2022-07-29T00:22:53;2.13;;;1.60;;
6513;SDS011;3290;47.716;9.070;2022-07-29T00:25:18;3.30;;;1.60;;
6513;SDS011;3290;47.716;9.070;2022-07-29T00:27:44;2.50;;;1.90;;
6513;SDS011;3290;47.716;9.070;2022-07-29T00:30:11;2.33;;;1.60;;
6513;SDS011;3290;47.716;9.070;2022-07-29T00:32:37;1.83;;;1.63;;
6513;SDS011;3290;47.716;9.070;2022-07-29T00:35:02;1.83;;;1.63;;
6513;SDS011;3290;47.716;9.070;2022-07-29T00:37:47;2.40;;;1.70;;
6513;SDS011;3290;47.716;9.070;2022-07-29T00:40:13;2.63;;;2.00;;
6513;SDS011;3290;47.716;9.070;2022-07-29T00:42:45;2.80;;;1.57;;
6513;SDS011;3290;47.716;9.070;2022-07-29T00:45:11;1.57;;;1.40;;
6513;SDS011;3290;47.716;9.070;2022-07-29T00:47:38;4.60;;;1.87;;
6513;SDS011;3290;47.716;9.070;2022-07-29T00:50:04;4.33;;;2.03;;
6513;SDS011;3290;47.716;9.070;2022-07-29T00:52:31;1.60;;;1.50;;
6513;SDS011;3290;47.716;9.070;2022-07-29T00:54:58;2.47;;;1.80;;
6513;SDS011;3290;47.716;9.070;2022-07-29T00:57:23;2.50;;;1.70;;
6513;SDS011;3290;47.716;9.070;2022-07-29T00:59:49;1.73;;;1.63;;
6513;SDS011;3290;47.716;9.070;2022-07-29T01:02:14;4.37;;;1.80;;
6513;SDS011;3290;47.716;9.070;2022-07-29T01:04:40;4.13;;;2.00;;
6513;SDS011;3290;47.716;9.070;2022-07-29T01:07:06;3.67;;;1.80;;
6513;SDS011;3290;47.716;9.070;2022-07-29T01:09:32;2.90;;;2.00;;
6513;SDS011;3290;47.716;9.070;2022-07-29T01:12:00;2.07;;;1.83;;
6513;SDS011;3290;47.716;9.070;2022-07-29T01:14:26;1.70;;;1.60;;
6513;SDS011;3290;47.716;9.070;2022-07-29T01:17:00;3.50;;;1.70;;
6513;SDS011;3290;47.716;9.070;2022-07-29T01:30:46;4.90;;;2.30;;
6513;SDS011;3290;47.716;9.070;2022-07-29T01:33:15;1.80;;;1.70;;
6513;SDS011;3290;47.716;9.070;2022-07-29T01:36:02;3.53;;;1.87;;
6513;SDS011;3290;47.716;9.070;2022-07-29T01:38:35;3.67;;;2.03;;
6513;SDS011;3290;47.716;9.070;2022-07-29T01:41:05;2.67;;;1.90;;
6513;SDS011;3290;47.716;9.070;2022-07-29T01:43:37;2.23;;;2.03;;
6513;SDS011;3290;47.716;9.070;2022-07-29T01:46:08;2.07;;;1.87;;
6513;SDS011;3290;47.716;9.070;2022-07-29T01:51:07;2.37;;;2.00;;
6513;SDS011;3290;47.716;9.070;2022-07-29T01:54:16;2.83;;;2.10;;
6513;SDS011;3290;47.716;9.070;2022-07-29T01:56:35;2.33;;;1.60;;
6513;SDS011;3290;47.716;9.070;2022-07-29T01:59:04;1.80;;;1.70;;
6513;SDS011;3290;47.716;9.070;2022-07-29T02:01:33;2.10;;;1.90;;
6513;SDS011;3290;47.716;9.070;2022-07-29T02:04:03;2.00;;;1.83;;
6513;SDS011;3290;47.716;9.070;2022-07-29T02:06:33;8.10;;;2.27;;
6513;SDS011;3290;47.716;9.070;2022-07-29T02:08:59;3.80;;;1.90;;
6513;SDS011;3290;47.716;9.070;2022-07-29T02:11:27;1.97;;;1.53;;
6513;SDS011;3290;47.716;9.070;2022-07-29T02:13:55;4.60;;;1.60;;
6513;SDS011;3290;47.716;9.070;2022-07-29T02:16:22;2.57;;;2.10;;
6513;SDS011;3290;47.716;9.070;2022-07-29T02:18:52;2.57;;;1.80;;
6513;SDS011;3290;47.716;9.070;2022-07-29T02:21:19;3.17;;;2.30;;
6513;SDS011;3290;47.716;9.070;2022-07-29T02:23:48;3.00;;;1.90;;
6513;SDS011;3290;47.716;9.070;2022-07-29T02:26:14;3.40;;;2.20;;
6513;SDS011;3290;47.716;9.070;2022-07-29T02:28:42;3.43;;;1.87;;
6513;SDS011;3290;47.716;9.070;2022-07-29T02:31:09;2.23;;;1.97;;
6513;SDS011;3290;47.716;9.070;2022-07-29T02:33:36;2.67;;;2.07;;
6513;SDS011;3290;47.716;9.070;2022-07-29T02:36:03;3.80;;;2.03;;
6513;SDS011;3290;47.716;9.070;2022-07-29T02:38:29;4.03;;;1.97;;
6513;SDS011;3290;47.716;9.070;2022-07-29T02:41:16;7.80;;;2.40;;
6513;SDS011;3290;47.716;9.070;2022-07-29T02:43:45;2.70;;;2.07;;
6513;SDS011;3290;47.716;9.070;2022-07-29T02:46:27;4.30;;;2.33;;
6513;SDS011;3290;47.716;9.070;2022-07-29T02:48:58;2.30;;;2.10;;
6513;SDS011;3290;47.716;9.070;2022-07-29T02:51:29;2.23;;;2.03;;
6513;SDS011;3290;47.716;9.070;2022-07-29T02:54:01;2.30;;;2.10;;
6513;SDS011;3290;47.716;9.070;2022-07-29T02:56:32;4.27;;;2.10;;
6513;SDS011;3290;47.716;9.070;2022-07-29T02:59:01;2.90;;;2.17;;
6513;SDS011;3290;47.716;9.070;2022-07-29T03:01:31;2.60;;;2.40;;
6513;SDS011;3290;47.716;9.070;2022-07-29T03:04:00;5.00;;;2.23;;
6513;SDS011;3290;47.716;9.070;2022-07-29T03:06:28;2.70;;;2.37;;
6513;SDS011;3290;47.716;9.070;2022-07-29T03:08:54;2.43;;;2.20;;
6513;SDS011;3290;47.716;9.070;2022-07-29T03:11:20;8.57;;;1.87;;
6513;SDS011;3290;47.716;9.070;2022-07-29T03:13:47;2.03;;;1.83;;
6513;SDS011;3290;47.716;9.070;2022-07-29T03:16:13;2.57;;;2.37;;
6513;SDS011;3290;47.716;9.070;2022-07-29T03:18:40;3.23;;;2.93;;
6513;SDS011;3290;47.716;9.070;2022-07-29T03:21:06;3.10;;;2.53;;
6513;SDS011;3290;47.716;9.070;2022-07-29T03:23:33;3.13;;;1.93;;
6513;SDS011;3290;47.716;9.070;2022-07-29T03:25:58;1.77;;;1.67;;
6513;SDS011;3290;47.716;9.070;2022-07-29T03:28:23;5.33;;;2.03;;
6513;SDS011;3290;47.716;9.070;2022-07-29T03:30:49;2.90;;;2.03;;
6513;SDS011;3290;47.716;9.070;2022-07-29T03:33:15;7.20;;;2.27;;
6513;SDS011;3290;47.716;9.070;2022-07-29T03:35:40;3.60;;;2.40;;
6513;SDS011;3290;47.716;9.070;2022-07-29T03:38:06;2.33;;;1.70;;
6513;SDS011;3290;47.716;9.070;2022-07-29T03:40:33;4.07;;;2.17;;
6513;SDS011;3290;47.716;9.070;2022-07-29T03:42:59;2.57;;;2.33;;
6513;SDS011;3290;47.716;9.070;2022-07-29T03:45:26;6.13;;;2.30;;
6513;SDS011;3290;47.716;9.070;2022-07-29T03:47:57;2.20;;;2.00;;
6513;SDS011;3290;47.716;9.070;2022-07-29T03:50:30;3.70;;;2.30;;
6513;SDS011;3290;47.716;9.070;2022-07-29T03:52:57;2.37;;;1.80;;
6513;SDS011;3290;47.716;9.070;2022-07-29T03:55:23;2.03;;;1.77;;
6513;SDS011;3290;47.716;9.070;2022-07-29T03:57:50;2.30;;;2.00;;
6513;SDS011;3290;47.716;9.070;2022-07-29T04:00:15;3.23;;;2.23;;
6513;SDS011;3290;47.716;9.070;2022-07-29T04:02:41;2.93;;;2.23;;
6513;SDS011;3290;47.716;9.070;2022-07-29T04:05:13;2.00;;;1.80;;
6513;SDS011;3290;47.716;9.070;2022-07-29T04:07:40;3.10;;;2.60;;
6513;SDS011;3290;47.716;9.070;2022-07-29T04:10:08;3.07;;;2.20;;
6513;SDS011;3290;47.716;9.070;2022-07-29T04:12:33;3.60;;;2.10;;
6513;SDS011;3290;47.716;9.070;2022-07-29T04:14:59;3.30;;;2.20;;
6513;SDS011;3290;47.716;9.070;2022-07-29T04:17:24;2.53;;;2.30;;
6513;SDS011;3290;47.716;9.070;2022-07-29T04:19:50;4.20;;;2.40;;
6513;SDS011;3290;47.716;9.070;2022-07-29T04:22:15;2.80;;;2.27;;
6513;SDS011;3290;47.716;9.070;2022-07-29T04:24:40;2.93;;;2.47;;
6513;SDS011;3290;47.716;9.070;2022-07-29T04:27:06;2.43;;;1.90;;
6513;SDS011;3290;47.716;9.070;2022-07-29T04:29:31;5.37;;;2.50;;
6513;SDS011;3290;47.716;9.070;2022-07-29T04:31:56;2.43;;;2.10;;
6513;SDS011;3290;47.716;9.070;2022-07-29T04:34:22;2.87;;;2.30;;
6513;SDS011;3290;47.716;9.070;2022-07-29T04:36:47;3.90;;;2.47;;
6513;SDS011;3290;47.716;9.070;2022-07-29T04:39:12;2.30;;;2.10;;
6513;SDS011;3290;47.716;9.070;2022-07-29T04:41:38;2.97;;;2.67;;
6513;SDS011;3290;47.716;9.070;2022-07-29T04:44:03;3.50;;;2.13;;
6513;SDS011;3290;47.716;9.070;2022-07-29T04:46:30;3.80;;;2.07;;
6513;SDS011;3290;47.716;9.070;2022-07-29T04:48:56;2.50;;;2.30;;
6513;SDS011;3290;47.716;9.070;2022-07-29T04:51:21;4.93;;;2.70;;
6513;SDS011;3290;47.716;9.070;2022-07-29T04:53:47;3.50;;;2.47;;
6513;SDS011;3290;47.716;9.070;2022-07-29T04:56:12;3.80;;;2.30;;
6513;SDS011;3290;47.716;9.070;2022-07-29T04:58:38;3.60;;;2.23;;
6513;SDS011;3290;47.716;9.070;2022-07-29T05:01:03;3.20;;;2.40;;
6513;SDS011;3290;47.716;9.070;2022-07-29T05:03:29;3.23;;;2.30;;
6513;SDS011;3290;47.716;9.070;2022-07-29T05:05:54;3.93;;;2.07;;
6513;SDS011;3290;47.716;9.070;2022-07-29T05:08:20;2.60;;;2.40;;
6513;SDS011;3290;47.716;9.070;2022-07-29T05:10:45;3.67;;;2.40;;
6513;SDS011;3290;47.716;9.070;2022-07-29T05:13:11;5.00;;;2.10;;
6513;SDS011;3290;47.716;9.070;2022-07-29T05:15:36;5.50;;;2.10;;
6513;SDS011;3290;47.716;9.070;2022-07-29T05:18:02;5.67;;;2.70;;
6513;SDS011;3290;47.716;9.070;2022-07-29T05:20:29;2.70;;;2.10;;
6513;SDS011;3290;47.716;9.070;2022-07-29T05:22:56;3.00;;;2.00;;
6513;SDS011;3290;47.716;9.070;2022-07-29T05:25:25;9.10;;;2.20;;
6513;SDS011;3290;47.716;9.070;2022-07-29T05:27:52;5.70;;;2.83;;
6513;SDS011;3290;47.716;9.070;2022-07-29T05:30:17;6.07;;;2.07;;
6513;SDS011;3290;47.716;9.070;2022-07-29T05:32:43;2.60;;;2.13;;
6513;SDS011;3290;47.716;9.070;2022-07-29T05:35:09;4.30;;;3.00;;
6513;SDS011;3290;47.716;9.070;2022-07-29T05:37:34;4.70;;;2.53;;
6513;SDS011;3290;47.716;9.070;2022-07-29T05:40:00;3.03;;;2.77;;
6513;SDS011;3290;47.716;9.070;2022-07-29T05:42:26;5.70;;;2.97;;
6513;SDS011;3290;47.716;9.070;2022-07-29T05:44:52;3.20;;;2.63;;
6513;SDS011;3290;47.716;9.070;2022-07-29T05:47:18;3.50;;;2.43;;
6513;SDS011;3290;47.716;9.070;2022-07-29T05:49:43;3.13;;;2.60;;
6513;SDS011;3290;47.716;9.070;2022-07-29T05:52:09;4.13;;;2.63;;
6513;SDS011;3290;47.716;9.070;2022-07-29T05:54:34;2.80;;;2.57;;
6513;SDS011;3290;47.716;9.070;2022-07-29T05:57:00;12.60;;;3.40;;
6513;SDS011;3290;47.716;9.070;2022-07-29T05:59:25;5.30;;;3.17;;
6513;SDS011;3290;47.716;9.070;2022-07-29T06:01:51;5.57;;;3.20;;
6513;SDS011;3290;47.716;9.070;2022-07-29T06:04:16;2.63;;;2.43;;
6513;SDS011;3290;47.716;9.070;2022-07-29T06:06:42;8.90;;;3.20;;
6513;SDS011;3290;47.716;9.070;2022-07-29T06:09:07;5.80;;;2.90;;
6513;SDS011;3290;47.716;9.070;2022-07-29T06:11:33;4.33;;;2.50;;
6513;SDS011;3290;47.716;9.070;2022-07-29T06:13:58;4.60;;;2.80;;
6513;SDS011;3290;47.716;9.070;2022-07-29T06:16:23;4.90;;;2.80;;
6513;SDS011;3290;47.716;9.070;2022-07-29T06:18:49;4.60;;;3.27;;
6513;SDS011;3290;47.716;9.070;2022-07-29T06:21:14;7.43;;;2.80;;
6513;SDS011;3290;47.716;9.070;2022-07-29T06:23:39;4.90;;;2.50;;
6513;SDS011;3290;47.716;9.070;2022-07-29T06:26:05;3.40;;;2.70;;
6513;SDS011;3290;47.716;9.070;2022-07-29T06:28:31;3.97;;;3.00;;
6513;SDS011;3290;47.716;9.070;2022-07-29T06:30:57;4.27;;;3.20;;
6513;SDS011;3290;47.716;9.070;2022-07-29T06:33:23;5.10;;;3.40;;
6513;SDS011;3290;47.716;9.070;2022-07-29T06:35:48;4.40;;;3.50;;
6513;SDS011;3290;47.716;9.070;2022-07-29T06:38:14;4.33;;;3.93;;
6513;SDS011;3290;47.716;9.070;2022-07-29T06:40:43;3.43;;;3.00;;
6513;SDS011;3290;47.716;9.070;2022-07-29T06:43:28;7.50;;;4.10;;
6513;SDS011;3290;47.716;9.070;2022-07-29T06:45:57;4.87;;;4.00;;
6513;SDS011;3290;47.716;9.070;2022-07-29T06:48:23;5.77;;;3.67;;
6513;SDS011;3290;47.716;9.070;2022-07-29T06:50:49;4.87;;;3.53;;
6513;SDS011;3290;47.716;9.070;2022-07-29T06:53:14;5.50;;;3.40;;
6513;SDS011;3290;47.716;9.070;2022-07-29T06:55:40;4.90;;;3.70;;
6513;SDS011;3290;47.716;9.070;2022-07-29T06:58:05;6.33;;;3.60;;
6513;SDS011;3290;47.716;9.070;2022-07-29T07:00:32;3.80;;;3.17;;
6513;SDS011;3290;47.716;9.070;2022-07-29T07:02:58;6.17;;;3.40;;
6513;SDS011;3290;47.716;9.070;2022-07-29T07:05:23;7.00;;;3.63;;
6513;SDS011;3290;47.716;9.070;2022-07-29T07:07:48;5.47;;;3.23;;
6513;SDS011;3290;47.716;9.070;2022-07-29T07:10:14;5.83;;;3.13;;
6513;SDS011;3290;47.716;9.070;2022-07-29T07:12:39;5.07;;;3.37;;
6513;SDS011;3290;47.716;9.070;2022-07-29T07:15:05;4.23;;;3.40;;
6513;SDS011;3290;47.716;9.070;2022-07-29T07:17:31;3.70;;;3.37;;
6513;SDS011;3290;47.716;9.070;2022-07-29T07:19:56;3.80;;;3.20;;
6513;SDS011;3290;47.716;9.070;2022-07-29T07:22:22;3.17;;;2.87;;
6513;SDS011;3290;47.716;9.070;2022-07-29T07:24:47;4.20;;;3.57;;
6513;SDS011;3290;47.716;9.070;2022-07-29T07:27:12;3.90;;;3.57;;
6513;SDS011;3290;47.716;9.070;2022-07-29T07:29:38;5.77;;;3.67;;
6513;SDS011;3290;47.716;9.070;2022-07-29T07:32:06;5.07;;;3.63;;
6513;SDS011;3290;47.716;9.070;2022-07-29T07:34:32;5.30;;;3.73;;
6513;SDS011;3290;47.716;9.070;2022-07-29T07:36:57;8.40;;;4.33;;
6513;SDS011;3290;47.716;9.070;2022-07-29T07:39:23;4.10;;;3.20;;
6513;SDS011;3290;47.716;9.070;2022-07-29T07:41:48;5.50;;;3.77;;
6513;SDS011;3290;47.716;9.070;2022-07-29T07:44:14;6.60;;;3.53;;
6513;SDS011;3290;47.716;9.070;2022-07-29T07:46:39;3.47;;;3.17;;
6513;SDS011;3290;47.716;9.070;2022-07-29T07:49:05;5.27;;;3.37;;
6513;SDS011;3290;47.716;9.070;2022-07-29T07:51:30;5.10;;;3.40;;
6513;SDS011;3290;47.716;9.070;2022-07-29T07:53:55;5.67;;;3.50;;
6513;SDS011;3290;47.716;9.070;2022-07-29T07:56:21;6.80;;;2.90;;
6513;SDS011;3290;47.716;9.070;2022-07-29T07:58:46;4.50;;;3.13;;
6513;SDS011;3290;47.716;9.070;2022-07-29T08:01:11;3.87;;;2.70;;
6513;SDS011;3290;47.716;9.070;2022-07-29T08:03:37;4.20;;;2.90;;
6513;SDS011;3290;47.716;9.070;2022-07-29T08:06:03;3.37;;;2.57;;
6513;SDS011;3290;47.716;9.070;2022-07-29T08:08:29;7.20;;;2.80;;
6513;SDS011;3290;47.716;9.070;2022-07-29T08:10:55;5.33;;;2.23;;
6513;SDS011;3290;47.716;9.070;2022-07-29T08:13:22;5.27;;;2.40;;
6513;SDS011;3290;47.716;9.070;2022-07-29T08:15:50;3.30;;;2.40;;
6513;SDS011;3290;47.716;9.070;2022-07-29T08:18:26;3.80;;;2.20;;
6513;SDS011;3290;47.716;9.070;2022-07-29T08:20:53;7.30;;;2.50;;
6513;SDS011;3290;47.716;9.070;2022-07-29T08:23:19;6.27;;;2.73;;
6513;SDS011;3290;47.716;9.070;2022-07-29T08:25:45;4.00;;;2.60;;
6513;SDS011;3290;47.716;9.070;2022-07-29T08:28:10;2.87;;;2.47;;
6513;SDS011;3290;47.716;9.070;2022-07-29T08:30:35;6.70;;;2.60;;
6513;SDS011;3290;47.716;9.070;2022-07-29T08:33:01;2.53;;;2.23;;
6513;SDS011;3290;47.716;9.070;2022-07-29T08:35:27;3.07;;;2.20;;
6513;SDS011;3290;47.716;9.070;2022-07-29T08:37:52;6.90;;;2.70;;
6513;SDS011;3290;47.716;9.070;2022-07-29T08:40:19;9.07;;;2.83;;
6513;SDS011;3290;47.716;9.070;2022-07-29T08:42:45;3.50;;;2.60;;
6513;SDS011;3290;47.716;9.070;2022-07-29T08:45:11;4.03;;;2.80;;
6513;SDS011;3290;47.716;9.070;2022-07-29T08:47:38;4.73;;;2.87;;
6513;SDS011;3290;47.716;9.070;2022-07-29T08:50:08;3.10;;;2.40;;
6513;SDS011;3290;47.716;9.070;2022-07-29T08:52:38;2.40;;;2.20;;
6513;SDS011;3290;47.716;9.070;2022-07-29T08:55:06;3.17;;;2.63;;
6513;SDS011;3290;47.716;9.070;2022-07-29T08:57:33;5.87;;;2.53;;
6513;SDS011;3290;47.716;9.070;2022-07-29T09:00:00;3.03;;;2.60;;
6513;SDS011;3290;47.716;9.070;2022-07-29T09:02:27;4.00;;;3.10;;
6513;SDS011;3290;47.716;9.070;2022-07-29T09:04:57;2.93;;;2.60;;
6513;SDS011;3290;47.716;9.070;2022-07-29T09:07:25;3.33;;;2.53;;
6513;SDS011;3290;47.716;9.070;2022-07-29T09:09:50;3.57;;;2.50;;
6513;SDS011;3290;47.716;9.070;2022-07-29T09:12:16;3.90;;;2.60;;
6513;SDS011;3290;47.716;9.070;2022-07-29T09:14:42;5.37;;;2.53;;
6513;SDS011;3290;47.716;9.070;2022-07-29T09:17:07;5.70;;;2.80;;
6513;SDS011;3290;47.716;9.070;2022-07-29T09:19:33;3.20;;;2.90;;
6513;SDS011;3290;47.716;9.070;2022-07-29T09:22:01;6.20;;;2.50;;
6513;SDS011;3290;47.716;9.070;2022-07-29T09:24:37;4.27;;;2.97;;
6513;SDS011;3290;47.716;9.070;2022-07-29T09:27:11;2.90;;;2.30;;
6513;SDS011;3290;47.716;9.070;2022-07-29T09:29:54;5.67;;;3.10;;
6513;SDS011;3290;47.716;9.070;2022-07-29T09:32:57;2.87;;;2.60;;
6513;SDS011;3290;47.716;9.070;2022-07-29T09:35:26;5.43;;;3.33;;
6513;SDS011;3290;47.716;9.070;2022-07-29T09:37:53;3.47;;;3.17;;
6513;SDS011;3290;47.716;9.070;2022-07-29T09:40:22;3.10;;;2.53;;
6513;SDS011;3290;47.716;9.070;2022-07-29T09:42:50;3.03;;;2.70;;
6513;SDS011;3290;47.716;9.070;2022-07-29T09:45:29;3.70;;;2.50;;
6513;SDS011;3290;47.716;9.070;2022-07-29T09:47:56;2.70;;;2.27;;
6513;SDS011;3290;47.716;9.070;2022-07-29T09:50:40;3.90;;;2.30;;
6513;SDS011;3290;47.716;9.070;2022-07-29T09:53:07;2.57;;;2.37;;
6513;SDS011;3290;47.716;9.070;2022-07-29T09:55:45;4.03;;;2.57;;
6513;SDS011;3290;47.716;9.070;2022-07-29T09:58:15;3.20;;;2.50;;
6513;SDS011;3290;47.716;9.070;2022-07-29T10:00:45;5.80;;;2.73;;
6513;SDS011;3290;47.716;9.070;2022-07-29T10:03:12;2.73;;;2.50;;
6513;SDS011;3290;47.716;9.070;2022-07-29T10:05:39;2.23;;;2.03;;
6513;SDS011;3290;47.716;9.070;2022-07-29T10:08:05;4.10;;;2.47;;
6513;SDS011;3290;47.716;9.070;2022-07-29T10:10:34;5.80;;;2.60;;
6513;SDS011;3290;47.716;9.070;2022-07-29T10:13:10;4.00;;;2.53;;
6513;SDS011;3290;47.716;9.070;2022-07-29T10:15:40;5.10;;;2.10;;
6513;SDS011;3290;47.716;9.070;2022-07-29T10:18:08;2.40;;;2.20;;
6513;SDS011;3290;47.716;9.070;2022-07-29T10:20:36;2.47;;;2.13;;
6513;SDS011;3290;47.716;9.070;2022-07-29T10:23:02;2.80;;;2.37;;
6513;SDS011;3290;47.716;9.070;2022-07-29T10:25:28;2.53;;;2.33;;
6513;SDS011;3290;47.716;9.070;2022-07-29T10:27:54;3.83;;;3.30;;
6513;SDS011;3290;47.716;9.070;2022-07-29T10:30:20;3.33;;;2.80;;
6513;SDS011;3290;47.716;9.070;2022-07-29T10:35:18;5.30;;;2.30;;
6513;SDS011;3290;47.716;9.070;2022-07-29T10:43:32;4.53;;;2.33;;
6513;SDS011;3290;47.716;9.070;2022-07-29T10:46:01;3.90;;;2.40;;
6513;SDS011;3290;47.716;9.070;2022-07-29T10:48:27;2.60;;;2.40;;
6513;SDS011;3290;47.716;9.070;2022-07-29T10:50:58;3.43;;;2.50;;
6513;SDS011;3290;47.716;9.070;2022-07-29T10:56:28;2.47;;;2.27;;
6513;SDS011;3290;47.716;9.070;2022-07-29T11:01:45;4.17;;;2.20;;
6513;SDS011;3290;47.716;9.070;2022-07-29T11:04:11;2.50;;;2.30;;
6513;SDS011;3290;47.716;9.070;2022-07-29T11:09:27;3.60;;;2.27;;
6513;SDS011;3290;47.716;9.070;2022-07-29T11:11:55;5.70;;;2.30;;
6513;SDS011;3290;47.716;9.070;2022-07-29T11:17:18;2.60;;;2.20;;
6513;SDS011;3290;47.716;9.070;2022-07-29T11:19:43;3.17;;;2.07;;
6513;SDS011;3290;47.716;9.070;2022-07-29T11:22:10;5.07;;;2.50;;
6513;SDS011;3290;47.716;9.070;2022-07-29T11:24:36;2.40;;;2.20;;
6513;SDS011;3290;47.716;9.070;2022-07-29T11:27:06;3.03;;;2.27;;
6513;SDS011;3290;47.716;9.070;2022-07-29T11:29:35;3.07;;;2.23;;
6513;SDS011;3290;47.716;9.070;2022-07-29T11:32:11;2.47;;;2.20;;
6513;SDS011;3290;47.716;9.070;2022-07-29T11:34:40;3.13;;;2.40;;
6513;SDS011;3290;47.716;9.070;2022-07-29T11:39:32;3.00;;;2.23;;
6513;SDS011;3290;47.716;9.070;2022-07-29T11:47:23;3.10;;;2.40;;
6513;SDS011;3290;47.716;9.070;2022-07-29T11:49:51;7.03;;;2.20;;
6513;SDS011;3290;47.716;9.070;2022-07-29T11:52:17;2.60;;;2.40;;
6513;SDS011;3290;47.716;9.070;2022-07-29T11:54:43;3.70;;;2.83;;
6513;SDS011;3290;47.716;9.070;2022-07-29T11:57:12;3.20;;;2.43;;
6513;SDS011;3290;47.716;9.070;2022-07-29T11:59:41;2.13;;;1.93;;
6513;SDS011;3290;47.716;9.070;2022-07-29T12:02:08;2.50;;;2.30;;
6513;SDS011;3290;47.716;9.070;2022-07-29T12:04:47;2.57;;;2.10;;
6513;SDS011;3290;47.716;9.070;2022-07-29T12:07:17;2.13;;;1.80;;
6513;SDS011;3290;47.716;9.070;2022-07-29T12:09:49;7.13;;;3.10;;
6513;SDS011;3290;47.716;9.070;2022-07-29T12:12:17;2.40;;;2.10;;
6513;SDS011;3290;47.716;9.070;2022-07-29T12:14:43;2.47;;;2.20;;
6513;SDS011;3290;47.716;9.070;2022-07-29T12:17:25;2.53;;;2.13;;
6513;SDS011;3290;47.716;9.070;2022-07-29T12:19:51;2.90;;;2.17;;
6513;SDS011;3290;47.716;9.070;2022-07-29T12:22:24;2.20;;;2.00;;
6513;SDS011;3290;47.716;9.070;2022-07-29T12:24:54;4.07;;;2.03;;
6513;SDS011;3290;47.716;9.070;2022-07-29T12:27:20;3.30;;;2.50;;
6513;SDS011;3290;47.716;9.070;2022-07-29T12:29:59;3.40;;;2.40;;
6513;SDS011;3290;47.716;9.070;2022-07-29T12:32:39;2.90;;;2.37;;
6513;SDS011;3290;47.716;9.070;2022-07-29T12:35:07;2.80;;;2.23;;
6513;SDS011;3290;47.716;9.070;2022-07-29T12:37:34;2.80;;;2.20;;
6513;SDS011;3290;47.716;9.070;2022-07-29T12:40:02;3.63;;;2.20;;
6513;SDS011;3290;47.716;9.070;2022-07-29T12:42:29;4.13;;;2.30;;
6513;SDS011;3290;47.716;9.070;2022-07-29T12:44:55;2.20;;;2.00;;
6513;SDS011;3290;47.716;9.070;2022-07-29T12:47:20;3.13;;;2.30;;
6513;SDS011;3290;47.716;9.070;2022-07-29T12:49:46;6.83;;;2.20;;
6513;SDS011;3290;47.716;9.070;2022-07-29T12:54:56;3.57;;;2.63;;
6513;SDS011;3290;47.716;9.070;2022-07-29T12:57:22;2.90;;;2.60;;
6513;SDS011;3290;47.716;9.070;2022-07-29T13:00:08;4.43;;;3.53;;
6513;SDS011;3290;47.716;9.070;2022-07-29T13:02:36;3.30;;;3.00;;
6513;SDS011;3290;47.716;9.070;2022-07-29T13:05:03;4.23;;;2.80;;
6513;SDS011;3290;47.716;9.070;2022-07-29T13:07:31;7.70;;;3.37;;
6513;SDS011;3290;47.716;9.070;2022-07-29T13:10:10;3.10;;;2.80;;
6513;SDS011;3290;47.716;9.070;2022-07-29T13:12:37;4.17;;;3.23;;
6513;SDS011;3290;47.716;9.070;2022-07-29T13:15:15;3.27;;;2.97;;
6513;SDS011;3290;47.716;9.070;2022-07-29T13:17:42;3.90;;;3.13;;
6513;SDS011;3290;47.716;9.070;2022-07-29T13:20:09;4.77;;;3.40;;
6513;SDS011;3290;47.716;9.070;2022-07-29T13:22:38;3.80;;;3.00;;
6513;SDS011;3290;47.716;9.070;2022-07-29T13:25:04;7.73;;;2.90;;
6513;SDS011;3290;47.716;9.070;2022-07-29T13:27:32;7.50;;;3.30;;
6513;SDS011;3290;47.716;9.070;2022-07-29T13:30:00;5.50;;;3.70;;
6513;SDS011;3290;47.716;9.070;2022-07-29T13:32:27;3.50;;;3.00;;
6513;SDS011;3290;47.716;9.070;2022-07-29T13:34:54;5.40;;;3.00;;
6513;SDS011;3290;47.716;9.070;2022-07-29T13:37:23;4.80;;;3.33;;
6513;SDS011;3290;47.716;9.070;2022-07-29T13:39:48;5.50;;;3.30;;
6513;SDS011;3290;47.716;9.070;2022-07-29T13:42:14;3.10;;;2.90;;
6513;SDS011;3290;47.716;9.070;2022-07-29T13:44:39;3.43;;;2.53;;
6513;SDS011;3290;47.716;9.070;2022-07-29T13:47:08;3.33;;;2.40;;
6513;SDS011;3290;47.716;9.070;2022-07-29T13:49:34;3.27;;;2.60;;
6513;SDS011;3290;47.716;9.070;2022-07-29T13:52:00;2.87;;;2.47;;
6513;SDS011;3290;47.716;9.070;2022-07-29T13:54:26;7.80;;;4.00;;
6513;SDS011;3290;47.716;9.070;2022-07-29T13:56:51;8.20;;;3.77;;
6513;SDS011;3290;47.716;9.070;2022-07-29T13:59:16;4.97;;;2.60;;
6513;SDS011;3290;47.716;9.070;2022-07-29T14:01:42;6.70;;;2.90;;
6513;SDS011;3290;47.716;9.070;2022-07-29T14:04:09;3.60;;;2.47;;
6513;SDS011;3290;47.716;9.070;2022-07-29T14:06:36;3.60;;;3.00;;
6513;SDS011;3290;47.716;9.070;2022-07-29T14:09:02;2.80;;;2.47;;
6513;SDS011;3290;47.716;9.070;2022-07-29T14:11:31;3.87;;;2.13;;
6513;SDS011;3290;47.716;9.070;2022-07-29T14:13:57;3.10;;;2.40;;
6513;SDS011;3290;47.716;9.070;2022-07-29T14:16:22;3.50;;;2.50;;
6513;SDS011;3290;47.716;9.070;2022-07-29T14:18:47;5.13;;;2.30;;
6513;SDS011;3290;47.716;9.070;2022-07-29T14:21:13;4.07;;;1.67;;
6513;SDS011;3290;47.716;9.070;2022-07-29T14:23:38;5.23;;;2.63;;
6513;SDS011;3290;47.716;9.070;2022-07-29T14:26:03;2.27;;;2.07;;
6513;SDS011;3290;47.716;9.070;2022-07-29T14:28:29;2.80;;;2.30;;
6513;SDS011;3290;47.716;9.070;2022-07-29T14:30:54;7.73;;;2.50;;
6513;SDS011;3290;47.716;9.070;2022-07-29T14:33:20;2.30;;;2.10;;
6513;SDS011;3290;47.716;9.070;2022-07-29T14:35:45;5.03;;;2.07;;
6513;SDS011;3290;47.716;9.070;2022-07-29T14:38:11;5.13;;;2.97;;
6513;SDS011;3290;47.716;9.070;2022-07-29T14:40:36;8.30;;;3.23;;
6513;SDS011;3290;47.716;9.070;2022-07-29T14:43:02;3.40;;;2.90;;
6513;SDS011;3290;47.716;9.070;2022-07-29T14:45:27;5.70;;;3.90;;
6513;SDS011;3290;47.716;9.070;2022-07-29T14:47:53;4.60;;;3.40;;
6513;SDS011;3290;47.716;9.070;2022-07-29T14:50:19;3.30;;;3.00;;
6513;SDS011;3290;47.716;9.070;2022-07-29T14:52:45;3.63;;;3.10;;
6513;SDS011;3290;47.716;9.070;2022-07-29T14:55:11;6.80;;;3.57;;
6513;SDS011;3290;47.716;9.070;2022-07-29T14:57:37;4.03;;;2.97;;
6513;SDS011;3290;47.716;9.070;2022-07-29T15:00:03;3.20;;;2.90;;
6513;SDS011;3290;47.716;9.070;2022-07-29T15:02:30;3.03;;;2.73;;
6513;SDS011;3290;47.716;9.070;2022-07-29T15:04:56;5.37;;;3.10;;
6513;SDS011;3290;47.716;9.070;2022-07-29T15:07:21;3.70;;;2.90;;
6513;SDS011;3290;47.716;9.070;2022-07-29T15:09:46;3.43;;;2.80;;
6513;SDS011;3290;47.716;9.070;2022-07-29T15:12:12;4.03;;;2.80;;
6513;SDS011;3290;47.716;9.070;2022-07-29T15:14:38;4.20;;;2.60;;
6513;SDS011;3290;47.716;9.070;2022-07-29T15:17:03;3.30;;;2.90;;
6513;SDS011;3290;47.716;9.070;2022-07-29T15:19:29;4.10;;;3.03;;
6513;SDS011;3290;47.716;9.070;2022-07-29T15:21:54;3.17;;;2.50;;
6513;SDS011;3290;47.716;9.070;2022-07-29T15:24:20;3.30;;;2.73;;
6513;SDS011;3290;47.716;9.070;2022-07-29T15:26:46;4.23;;;3.33;;
6513;SDS011;3290;47.716;9.070;2022-07-29T15:29:12;4.57;;;2.70;;
6513;SDS011;3290;47.716;9.070;2022-07-29T15:31:38;4.10;;;3.27;;
6513;SDS011;3290;47.716;9.070;2022-07-29T15:34:03;6.13;;;2.93;;
6513;SDS011;3290;47.716;9.070;2022-07-29T15:36:30;4.33;;;3.00;;
6513;SDS011;3290;47.716;9.070;2022-07-29T15:38:55;4.17;;;3.07;;
6513;SDS011;3290;47.716;9.070;2022-07-29T15:41:21;3.57;;;2.90;;
6513;SDS011;3290;47.716;9.070;2022-07-29T15:43:47;3.30;;;3.00;;
6513;SDS011;3290;47.716;9.070;2022-07-29T15:46:14;3.43;;;3.13;;
6513;SDS011;3290;47.716;9.070;2022-07-29T15:48:59;6.23;;;3.00;;
6513;SDS011;3290;47.716;9.070;2022-07-29T15:51:24;5.90;;;3.20;;
6513;SDS011;3290;47.716;9.070;2022-07-29T15:53:50;4.20;;;2.90;;
6513;SDS011;3290;47.716;9.070;2022-07-29T15:56:15;3.20;;;2.90;;
6513;SDS011;3290;47.716;9.070;2022-07-29T15:58:41;4.43;;;3.13;;
6513;SDS011;3290;47.716;9.070;2022-07-29T16:01:07;3.27;;;2.97;;